Карточка аэропорта ULLI

Внимание!
Информация на этой странице в стадии наполнения.
Если вы не увидели какой-то информации, или заметили неточность - пожалуйста сообщите нам!
Спасибо!
Команда RU-STAFF
Название аэропортаПулково
Название аэропорта (англ.)Pulkovo
Превышение79 ft. (24.1 m.)
Координаты59°48.018', 30°15.75'
Высота перехода3500ft
Эшелон переходаQNH>=996hPa:FL50; QNH<996hPa=>960hPa:FL60; QNH<960hPa:FL70
Коды ответчика0701-0777, 5701-5727
Зона ОрВДСанкт-Петербург РПИ (ULLL)
Данные METARULLI 211030Z 06006MPS 9999 SCT035 07/M00 Q1025 R88/290040 NOSIG
Проноз погоды (TAF)ULLI 210759Z 2109/2209 06003MPS 6000 BKN020 BECMG 2112/2114 04005G10MPS TEMPO 2118/2209 3100 -SHRA BR BKN010 BKN016CB BECMG 2200/2202 04008G13MPS
NOTAMshow/hide NOTAM
AWOS   TABLE

Информация о ВПП

ВПП Длина ВПП (м.) Покрытие Курс ВПП Частота ILS
10L3397Цементобетон95110.5
28R3397Цементобетон275111.3
10R3780Цементобетон95111.9
28L3780Цементобетон275108.9

Диспетчерские позиции

Позывной Наименование органа УВД Частота
ULLI_GNDПулково-Руление121.7
ULLI_TWRПулково-Вышка118.1
ULLI_APPПетербург-Подход119.3
ULLI_R_APPПулково-Круг120.3
ULLI_DELПулково-Деливери121.9
ULLIFM1Машина сопровождения121.7



Спутниковое изображение